Time;durP1;ratioP1;P1;durP2;ratioP2;P2;SDS_P1;SDS_P2;PMS_P1;PMS_P2;Temp;Humidity;BMP_temperature;BMP_pressure;BME280_temperature;BME280_humidity;BME280_pressure;Samples;Min_cycle;Max_cycle;Signal;HPM_P1;HPM_P2
2021/05/21 00:01:52;;;;;;;16.73;15.13;;;12.70;94.00;;;;;;4918333;29;20897;-78
2021/05/21 00:04:20;;;;;;;16.90;15.30;;;12.70;94.10;;;;;;4918185;29;20970;-77
2021/05/21 00:06:47;;;;;;;17.00;15.50;;;12.70;94.20;;;;;;4919197;29;20536;-77
2021/05/21 00:09:15;;;;;;;17.83;15.93;;;12.60;94.30;;;;;;4918682;29;20451;-78
2021/05/21 00:11:43;;;;;;;17.30;15.70;;;12.60;94.30;;;;;;4924300;29;20458;-78
2021/05/21 00:14:10;;;;;;;16.90;15.30;;;12.50;94.40;;;;;;4918910;29;20476;-78
2021/05/21 00:16:38;;;;;;;15.57;14.17;;;12.50;94.40;;;;;;4919901;29;20972;-78
2021/05/21 00:19:07;;;;;;;16.73;15.20;;;12.50;94.40;;;;;;4916493;29;20583;-77
2021/05/21 00:21:34;;;;;;;17.20;15.50;;;12.50;94.50;;;;;;4919533;29;20858;-77
2021/05/21 00:24:02;;;;;;;17.30;15.77;;;12.40;94.60;;;;;;4917925;29;20978;-77
2021/05/21 00:26:30;;;;;;;17.33;15.50;;;12.40;94.70;;;;;;4918212;29;20470;-77
2021/05/21 00:28:58;;;;;;;16.00;14.40;;;12.40;94.70;;;;;;4917700;29;21076;-77
2021/05/21 00:31:25;;;;;;;17.77;15.98;;;12.30;94.70;;;;;;4916285;29;21011;-77
2021/05/21 00:33:53;;;;;;;16.93;15.33;;;12.40;95.50;;;;;;4919205;29;20295;-77
2021/05/21 00:36:21;;;;;;;14.93;13.37;;;12.40;95.30;;;;;;4920127;29;20484;-77
2021/05/21 00:38:49;;;;;;;16.27;14.70;;;12.30;95.30;;;;;;4915056;29;20492;-77
2021/05/21 00:41:21;;;;;;;14.00;12.70;;;12.30;95.30;;;;;;4917991;29;20465;-77
2021/05/21 00:43:51;;;;;;;14.37;12.97;;;12.30;95.80;;;;;;4920728;29;20280;-77
2021/05/21 00:46:19;;;;;;;15.40;14.00;;;12.30;95.60;;;;;;4921278;29;20487;-77
2021/05/21 00:48:47;;;;;;;14.23;12.73;;;12.20;95.50;;;;;;4921522;29;20473;-77
2021/05/21 00:51:14;;;;;;;14.50;13.20;;;12.20;95.50;;;;;;4921095;29;20544;-77
2021/05/21 00:53:43;;;;;;;13.10;11.87;;;12.10;95.50;;;;;;4922042;29;20436;-77
2021/05/21 00:56:11;;;;;;;13.17;11.77;;;12.10;95.50;;;;;;4918806;29;20432;-77
2021/05/21 00:58:39;;;;;;;13.13;12.03;;;12.10;95.50;;;;;;4920454;29;20933;-77
2021/05/21 01:01:06;;;;;;;11.93;10.73;;;12.10;95.60;;;;;;4920635;29;20453;-77
2021/05/21 01:03:38;;;;;;;11.90;10.70;;;12.00;95.80;;;;;;4920444;29;20954;-77
2021/05/21 01:06:06;;;;;;;10.70;9.53;;;12.00;95.60;;;;;;4920527;29;20518;-77
2021/05/21 01:08:35;;;;;;;11.50;10.40;;;12.00;95.60;;;;;;4920553;29;20505;-77
2021/05/21 01:11:05;;;;;;;10.10;9.20;;;11.90;95.60;;;;;;4920572;29;20427;-77
2021/05/21 01:13:34;;;;;;;9.57;8.67;;;11.90;95.70;;;;;;4920956;29;20457;-77
2021/05/21 01:16:02;;;;;;;11.83;8.90;;;11.90;95.70;;;;;;4921947;29;20997;-77
2021/05/21 01:18:30;;;;;;;9.77;8.87;;;11.90;95.80;;;;;;4921048;29;20515;-77
2021/05/21 01:20:59;;;;;;;9.30;8.50;;;11.90;95.80;;;;;;4920816;29;20520;-77
2021/05/21 01:23:27;;;;;;;9.10;8.30;;;11.90;95.80;;;;;;4920223;29;20457;-77
2021/05/21 01:25:55;;;;;;;9.80;9.00;;;11.90;95.90;;;;;;4920071;29;20485;-77
2021/05/21 01:28:23;;;;;;;8.80;8.00;;;11.90;95.90;;;;;;4920163;29;20457;-78
2021/05/21 01:30:51;;;;;;;8.60;7.80;;;11.90;95.90;;;;;;4922448;29;20854;-77
2021/05/21 01:33:20;;;;;;;8.43;7.73;;;11.90;96.00;;;;;;4921869;29;20547;-77
2021/05/21 01:35:47;;;;;;;7.23;6.63;;;11.90;96.30;;;;;;4920749;29;20535;-78
2021/05/21 01:38:16;;;;;;;7.10;6.40;;;11.90;96.00;;;;;;4921544;29;20469;-77
2021/05/21 01:40:45;;;;;;;7.90;6.60;;;12.00;96.10;;;;;;4918064;29;20536;-78
2021/05/21 01:43:13;;;;;;;6.80;6.20;;;12.00;96.20;;;;;;4919754;29;20508;-77
2021/05/21 01:45:41;;;;;;;6.30;5.70;;;11.90;96.10;;;;;;4919657;29;20531;-77
2021/05/21 01:48:11;;;;;;;6.53;5.93;;;12.00;96.20;;;;;;4919442;29;20554;-77
2021/05/21 01:50:39;;;;;;;6.30;5.70;;;12.00;96.20;;;;;;4919119;29;21016;-76
2021/05/21 01:53:07;;;;;;;5.80;5.20;;;12.00;96.30;;;;;;4919329;29;20444;-77
2021/05/21 01:55:36;;;;;;;5.43;4.93;;;12.00;96.30;;;;;;4916709;29;20469;-77
2021/05/21 01:58:04;;;;;;;5.17;4.70;;;12.00;96.30;;;;;;4920174;29;20445;-77
2021/05/21 02:00:31;;;;;;;5.17;4.67;;;12.00;96.30;;;;;;4919658;29;20481;-77
2021/05/21 02:02:59;;;;;;;5.10;4.70;;;12.00;96.40;;;;;;4920804;29;20791;-77
2021/05/21 02:05:27;;;;;;;6.07;4.63;;;12.00;96.40;;;;;;4919294;29;20453;-77
2021/05/21 02:07:54;;;;;;;4.73;4.20;;;12.00;96.40;;;;;;4919166;29;20548;-77
2021/05/21 02:10:23;;;;;;;4.60;4.17;;;12.00;96.40;;;;;;4919012;29;20476;-77
2021/05/21 02:12:51;;;;;;;5.27;4.17;;;12.00;96.40;;;;;;4921292;29;20471;-78
2021/05/21 02:15:19;;;;;;;3.97;3.67;;;12.00;96.40;;;;;;4920100;29;20484;-78
2021/05/21 02:17:47;;;;;;;4.00;3.70;;;12.10;96.50;;;;;;4920559;29;20492;-78
2021/05/21 02:20:15;;;;;;;3.80;3.10;;;12.10;96.50;;;;;;4919326;29;20886;-78
2021/05/21 02:22:43;;;;;;;4.00;3.60;;;12.10;96.50;;;;;;4921011;29;20775;-77
2021/05/21 02:25:12;;;;;;;3.97;3.60;;;12.10;96.50;;;;;;4920502;29;20531;-78
2021/05/21 02:27:40;;;;;;;5.13;4.40;;;12.10;96.50;;;;;;4919898;29;20456;-77
2021/05/21 02:30:10;;;;;;;3.53;3.23;;;12.10;96.50;;;;;;4919458;29;20559;-77
2021/05/21 02:32:38;;;;;;;3.40;3.10;;;12.10;96.60;;;;;;4919742;29;20962;-77
2021/05/21 02:35:07;;;;;;;4.00;2.67;;;12.10;96.60;;;;;;4920800;29;21061;-79
2021/05/21 02:37:35;;;;;;;3.80;3.50;;;12.10;96.60;;;;;;4920017;29;20547;-78
2021/05/21 02:40:06;;;;;;;3.30;2.80;;;12.10;96.60;;;;;;4920105;29;21017;-77
2021/05/21 02:42:33;;;;;;;3.27;2.97;;;12.10;96.60;;;;;;4921030;29;20544;-78
2021/05/21 02:45:01;;;;;;;2.83;2.63;;;12.10;96.60;;;;;;4920429;29;20453;-77
2021/05/21 02:47:31;;;;;;;4.07;3.77;;;12.10;96.60;;;;;;4920854;29;20473;-77
2021/05/21 02:49:59;;;;;;;3.30;2.93;;;12.10;96.60;;;;;;4919988;29;20535;-77
2021/05/21 02:52:27;;;;;;;4.00;2.70;;;12.10;96.60;;;;;;4919123;29;20448;-77
2021/05/21 02:54:56;;;;;;;3.20;3.00;;;12.10;96.70;;;;;;4920009;29;20472;-77
2021/05/21 02:57:25;;;;;;;3.20;2.90;;;12.10;96.70;;;;;;4918805;29;20464;-77
2021/05/21 03:00:03;;;;;;;3.33;2.83;;;12.20;96.80;;;;;;4918247;29;20527;-77
2021/05/21 03:02:32;;;;;;;3.07;2.87;;;12.20;96.80;;;;;;4919497;29;21019;-77
2021/05/21 03:05:00;;;;;;;3.47;2.90;;;12.20;96.80;;;;;;4918763;29;20861;-77
2021/05/21 03:07:27;;;;;;;2.90;2.70;;;12.20;96.80;;;;;;4918476;29;20535;-77
2021/05/21 03:09:55;;;;;;;3.03;2.50;;;12.20;96.80;;;;;;4920071;29;20854;-77
2021/05/21 03:12:23;;;;;;;3.97;2.70;;;12.20;96.90;;;;;;4918590;29;20468;-77
2021/05/21 03:14:51;;;;;;;2.78;2.58;;;12.20;96.90;;;;;;4918723;29;20852;-77
2021/05/21 03:17:19;;;;;;;4.77;2.57;;;12.20;96.90;;;;;;4920034;29;20248;-77
2021/05/21 03:19:47;;;;;;;3.43;3.13;;;12.20;96.90;;;;;;4920336;29;20559;-77
2021/05/21 03:22:15;;;;;;;3.90;2.60;;;12.20;96.90;;;;;;4918610;29;20447;-77
2021/05/21 03:24:42;;;;;;;3.20;2.90;;;12.20;96.90;;;;;;4918315;29;20507;-77
2021/05/21 03:27:10;;;;;;;2.77;2.57;;;12.20;96.90;;;;;;4918760;29;20526;-77
2021/05/21 03:29:37;;;;;;;2.90;2.60;;;12.20;96.90;;;;;;4919720;29;20559;-77
2021/05/21 03:32:06;;;;;;;3.20;3.00;;;12.20;96.90;;;;;;4919453;29;20492;-77
2021/05/21 03:34:33;;;;;;;4.23;2.30;;;12.20;96.90;;;;;;4917845;29;20481;-77
2021/05/21 03:37:02;;;;;;;2.70;2.50;;;12.20;96.90;;;;;;4918311;29;20456;-77
2021/05/21 03:39:29;;;;;;;4.23;2.13;;;12.20;96.90;;;;;;4919603;29;20468;-77
2021/05/21 03:41:57;;;;;;;5.17;2.60;;;12.20;96.90;;;;;;4918690;29;20489;-78
2021/05/21 03:44:24;;;;;;;2.63;2.43;;;12.20;96.90;;;;;;4917983;29;20574;-77
2021/05/21 03:46:52;;;;;;;4.40;2.60;;;12.20;97.00;;;;;;4917893;29;20453;-77
2021/05/21 03:49:20;;;;;;;2.50;2.30;;;12.20;97.00;;;;;;4918161;29;20482;-77
2021/05/21 03:51:47;;;;;;;2.53;2.33;;;12.20;97.00;;;;;;4918179;29;20511;-77
2021/05/21 03:54:16;;;;;;;3.40;2.63;;;12.20;97.00;;;;;;4919732;29;20935;-77
2021/05/21 03:56:43;;;;;;;3.27;2.60;;;12.20;97.00;;;;;;4917854;29;20563;-77
2021/05/21 03:59:12;;;;;;;3.30;3.00;;;12.20;97.00;;;;;;4919431;29;20563;-77
2021/05/21 04:01:40;;;;;;;3.00;2.73;;;12.20;97.10;;;;;;4919848;29;20461;-77
2021/05/21 04:04:08;;;;;;;5.13;2.80;;;12.20;97.10;;;;;;4918785;29;20461;-77
2021/05/21 04:06:35;;;;;;;2.50;2.30;;;12.20;97.10;;;;;;4918298;29;20865;-77
2021/05/21 04:09:06;;;;;;;4.63;3.47;;;12.20;97.10;;;;;;4919209;29;20460;-77
2021/05/21 04:11:35;;;;;;;6.67;4.40;;;12.20;97.10;;;;;;4917674;29;20913;-77
2021/05/21 04:14:04;;;;;;;4.30;2.60;;;12.20;97.20;;;;;;4899452;29;20545;-77
2021/05/21 04:16:32;;;;;;;3.97;2.60;;;12.20;97.20;;;;;;4900454;29;20501;-77
2021/05/21 04:19:00;;;;;;;2.70;2.50;;;12.20;97.20;;;;;;4902524;29;20508;-77
2021/05/21 04:21:32;;;;;;;3.00;2.47;;;12.30;97.30;;;;;;4918606;29;20447;-77
2021/05/21 04:24:00;;;;;;;2.73;2.53;;;12.20;97.20;;;;;;4922169;29;20448;-77
2021/05/21 04:26:28;;;;;;;8.48;6.00;;;12.30;97.30;;;;;;4919639;29;20454;-77
2021/05/21 04:28:56;;;;;;;3.40;2.40;;;12.30;97.60;;;;;;4922559;29;20315;-77
2021/05/21 04:31:24;;;;;;;3.17;2.60;;;12.40;97.50;;;;;;4922389;29;20500;-77
2021/05/21 04:33:52;;;;;;;5.73;3.97;;;12.40;97.50;;;;;;4922062;29;20956;-79
2021/05/21 04:36:20;;;;;;;2.83;2.20;;;12.40;97.50;;;;;;4919245;29;20441;-79
2021/05/21 04:38:48;;;;;;;2.63;1.80;;;12.40;97.70;;;;;;4924057;29;20497;-79
2021/05/21 04:41:16;;;;;;;2.57;2.10;;;12.50;97.60;;;;;;4925832;29;20479;-79
2021/05/21 04:43:45;;;;;;;2.83;2.40;;;12.40;97.60;;;;;;4924720;29;20939;-79
2021/05/21 04:46:15;;;;;;;2.10;1.83;;;12.50;97.60;;;;;;4924807;29;20440;-79
2021/05/21 04:48:42;;;;;;;2.90;2.40;;;12.50;97.60;;;;;;4925588;29;20528;-79
2021/05/21 04:51:11;;;;;;;2.13;1.93;;;12.60;97.70;;;;;;4923215;29;20469;-79
2021/05/21 04:53:41;;;;;;;2.33;2.17;;;12.60;97.70;;;;;;4925137;29;20460;-79
2021/05/21 04:56:09;;;;;;;2.80;1.77;;;12.70;97.70;;;;;;4920714;29;21063;-77
2021/05/21 04:58:37;;;;;;;3.20;2.00;;;12.70;97.70;;;;;;4922193;29;20576;-79
2021/05/21 05:01:05;;;;;;;3.30;2.20;;;12.70;97.70;;;;;;4924020;29;20448;-79
2021/05/21 05:03:33;;;;;;;3.63;2.17;;;12.80;97.80;;;;;;4924139;29;20445;-78
2021/05/21 05:06:01;;;;;;;2.73;2.43;;;12.80;97.80;;;;;;4923357;29;20485;-79
2021/05/21 05:08:29;;;;;;;2.20;2.00;;;12.80;97.70;;;;;;4922783;29;20858;-79
2021/05/21 05:10:56;;;;;;;2.07;1.87;;;12.90;97.80;;;;;;4925651;29;20508;-79
2021/05/21 05:13:24;;;;;;;2.13;1.80;;;13.00;97.80;;;;;;4934902;29;20456;-79
2021/05/21 05:15:52;;;;;;;3.90;2.90;;;13.00;97.80;;;;;;4934788;29;21023;-79
2021/05/21 05:18:20;;;;;;;4.40;2.30;;;13.00;97.80;;;;;;4926163;29;20461;-79
2021/05/21 05:20:51;;;;;;;3.10;2.37;;;13.10;97.80;;;;;;4924107;29;20457;-79
2021/05/21 05:23:19;;;;;;;2.60;1.80;;;13.10;97.80;;;;;;4924116;29;20456;-79
2021/05/21 05:25:48;;;;;;;3.53;2.10;;;13.20;97.90;;;;;;4923628;29;20926;-79
2021/05/21 05:28:16;;;;;;;2.27;2.00;;;13.20;97.90;;;;;;4924646;29;21012;-79
2021/05/21 05:30:44;;;;;;;2.07;1.87;;;13.20;97.90;;;;;;4924605;29;20420;-79
2021/05/21 05:33:11;;;;;;;3.13;2.10;;;13.20;97.90;;;;;;4923649;29;20508;-79
2021/05/21 05:35:41;;;;;;;2.33;2.13;;;13.20;97.90;;;;;;4923275;29;20480;-79
2021/05/21 05:38:10;;;;;;;2.53;2.10;;;13.30;97.90;;;;;;4925433;29;20452;-79
2021/05/21 05:40:38;;;;;;;2.20;2.00;;;13.30;97.90;;;;;;4925646;29;20468;-79
2021/05/21 05:43:06;;;;;;;2.73;2.00;;;13.50;98.00;;;;;;4922858;29;20449;-79
2021/05/21 05:45:34;;;;;;;3.47;1.90;;;13.60;98.00;;;;;;4923664;29;20451;-79
2021/05/21 05:48:02;;;;;;;3.00;2.43;;;13.60;98.00;;;;;;4924636;29;20291;-79
2021/05/21 05:50:30;;;;;;;2.60;2.03;;;13.70;98.00;;;;;;4923318;29;20459;-79
2021/05/21 05:52:59;;;;;;;2.07;1.83;;;13.80;98.00;;;;;;4925040;29;20834;-79
2021/05/21 05:55:31;;;;;;;3.30;2.80;;;13.80;98.00;;;;;;4922016;29;20955;-79
2021/05/21 05:57:59;;;;;;;4.13;2.30;;;13.80;98.00;;;;;;4922696;29;20831;-79
2021/05/21 06:00:26;;;;;;;3.37;1.80;;;13.70;98.00;;;;;;4922992;29;20451;-78
2021/05/21 06:02:55;;;;;;;3.00;1.97;;;13.80;98.00;;;;;;4922812;29;20530;-78
2021/05/21 06:05:23;;;;;;;3.40;1.90;;;13.70;97.90;;;;;;4923809;29;20457;-79
2021/05/21 06:07:51;;;;;;;4.80;2.17;;;13.70;97.90;;;;;;4924087;29;20492;-79
2021/05/21 06:10:18;;;;;;;4.40;2.30;;;13.80;97.90;;;;;;4924004;29;20488;-79
2021/05/21 06:12:47;;;;;;;3.97;2.63;;;13.80;97.90;;;;;;4924715;29;20551;-79
2021/05/21 06:15:15;;;;;;;2.70;2.20;;;13.80;97.90;;;;;;4925890;29;20512;-79
2021/05/21 06:17:43;;;;;;;2.40;1.87;;;13.80;97.80;;;;;;4926623;29;21052;-79
2021/05/21 06:20:11;;;;;;;2.53;1.90;;;13.70;97.70;;;;;;4924856;29;20807;-79
2021/05/21 06:22:39;;;;;;;3.37;1.70;;;13.70;97.60;;;;;;4925844;29;20919;-79
2021/05/21 06:25:09;;;;;;;3.63;1.80;;;13.60;97.50;;;;;;4924472;29;20457;-79
2021/05/21 06:27:37;;;;;;;1.90;1.37;;;13.60;97.50;;;;;;4925860;29;20449;-79
2021/05/21 06:30:09;;;;;;;3.27;1.80;;;13.50;97.40;;;;;;4924655;29;20469;-79
2021/05/21 06:32:37;;;;;;;2.77;1.90;;;13.50;97.50;;;;;;4925333;29;20479;-79
2021/05/21 06:35:06;;;;;;;3.73;1.60;;;13.40;97.50;;;;;;4926450;29;20429;-79
2021/05/21 06:37:33;;;;;;;3.27;1.83;;;13.40;97.60;;;;;;4924846;29;20473;-80
2021/05/21 06:40:10;;;;;;;3.60;1.90;;;13.40;97.60;;;;;;4924801;29;20476;-79
2021/05/21 06:42:37;;;;;;;2.80;1.87;;;13.40;97.70;;;;;;4924950;29;20470;-79
2021/05/21 06:45:07;;;;;;;3.30;2.27;;;13.30;97.70;;;;;;4924283;29;20464;-79
2021/05/21 06:47:35;;;;;;;4.40;1.80;;;13.30;97.80;;;;;;4924565;29;20974;-79
2021/05/21 06:50:04;;;;;;;5.53;2.03;;;13.30;97.80;;;;;;4926132;29;20431;-81
2021/05/21 06:52:32;;;;;;;5.90;2.00;;;13.20;97.90;;;;;;4924867;29;20435;-79
2021/05/21 06:54:59;;;;;;;7.70;2.03;;;13.20;98.00;;;;;;4926374;29;20469;-79
2021/05/21 06:57:27;;;;;;;3.40;1.63;;;13.20;98.10;;;;;;4924227;29;20510;-79
2021/05/21 06:59:57;;;;;;;3.87;2.10;;;13.20;98.50;;;;;;4924619;29;20477;-79
2021/05/21 07:02:28;;;;;;;4.33;1.67;;;13.20;98.30;;;;;;4925188;29;20464;-79
2021/05/21 07:04:57;;;;;;;5.40;2.10;;;13.20;98.30;;;;;;4924645;29;20906;-79
2021/05/21 07:07:31;;;;;;;3.90;1.70;;;13.20;98.40;;;;;;4926685;29;20408;-79
2021/05/21 07:09:59;;;;;;;8.07;2.50;;;13.20;98.50;;;;;;4922762;29;20443;-79
2021/05/21 07:12:28;;;;;;;5.40;2.10;;;13.20;98.60;;;;;;4924511;29;20453;-79
2021/05/21 07:14:57;;;;;;;8.55;2.90;;;13.10;98.60;;;;;;4923285;29;20869;-79
2021/05/21 07:17:25;;;;;;;6.63;2.30;;;13.30;99.10;;;;;;4922844;29;20220;-79
2021/05/21 07:19:53;;;;;;;6.47;2.70;;;13.20;99.00;;;;;;4922714;29;20472;-78
2021/05/21 07:22:21;;;;;;;4.30;2.00;;;13.20;99.00;;;;;;4922120;29;20463;-79
2021/05/21 07:24:52;;;;;;;5.90;2.00;;;13.20;99.10;;;;;;4923806;29;20475;-79
2021/05/21 07:27:20;;;;;;;6.00;2.47;;;13.20;99.10;;;;;;4923459;29;20494;-79
2021/05/21 07:29:48;;;;;;;10.20;3.17;;;13.20;99.10;;;;;;4922907;29;20472;-79
2021/05/21 07:32:16;;;;;;;6.90;2.63;;;13.10;99.10;;;;;;4923014;29;20485;-79
2021/05/21 07:34:44;;;;;;;6.23;2.83;;;13.10;99.10;;;;;;4923284;29;20843;-79
2021/05/21 07:37:12;;;;;;;6.60;2.30;;;13.10;99.20;;;;;;4921480;29;20477;-79
2021/05/21 07:39:40;;;;;;;6.23;2.67;;;13.10;99.20;;;;;;4922803;29;20543;-79
2021/05/21 07:42:08;;;;;;;6.00;2.23;;;13.10;99.30;;;;;;4921739;29;20459;-79
2021/05/21 07:44:36;;;;;;;7.03;2.30;;;13.20;99.40;;;;;;4921570;29;20556;-79
2021/05/21 07:47:03;;;;;;;7.00;2.37;;;13.20;99.50;;;;;;4937433;29;20448;-79
2021/05/21 07:49:32;;;;;;;12.63;3.43;;;13.30;99.50;;;;;;4925078;29;20467;-79
2021/05/21 07:52:01;;;;;;;6.03;2.70;;;13.30;99.50;;;;;;4920826;29;20453;-79
2021/05/21 07:54:29;;;;;;;5.53;2.13;;;13.30;99.40;;;;;;4921704;29;20492;-79
2021/05/21 07:56:56;;;;;;;7.07;2.27;;;13.30;99.40;;;;;;4922029;29;20511;-79
2021/05/21 07:59:24;;;;;;;9.17;2.73;;;13.30;99.40;;;;;;4923804;29;20465;-80
2021/05/21 08:01:53;;;;;;;6.00;2.67;;;13.20;99.40;;;;;;4923130;29;20468;-79
2021/05/21 08:04:23;;;;;;;8.50;2.33;;;13.10;99.50;;;;;;4922715;29;20957;-79
2021/05/21 08:06:51;;;;;;;7.20;2.40;;;13.10;99.60;;;;;;4923388;29;20530;-79
2021/05/21 08:09:19;;;;;;;8.30;2.73;;;13.10;99.70;;;;;;4922924;29;20891;-80
2021/05/21 08:11:48;;;;;;;8.53;2.40;;;13.10;99.80;;;;;;4923040;29;20438;-80
2021/05/21 08:14:19;;;;;;;4.40;2.37;;;13.10;99.90;;;;;;4922779;29;20453;-80
2021/05/21 08:16:47;;;;;;;4.23;2.20;;;13.10;99.90;;;;;;4922289;29;20455;-80
2021/05/21 08:19:16;;;;;;;9.77;3.67;;;13.20;99.90;;;;;;4922548;29;20790;-80
2021/05/21 08:21:43;;;;;;;5.90;3.07;;;13.20;99.90;;;;;;4920438;29;20475;-78
2021/05/21 08:24:11;;;;;;;8.88;2.92;;;13.30;99.90;;;;;;4916391;29;20455;-78
2021/05/21 08:26:40;;;;;;;13.87;2.83;;;13.60;99.90;;;;;;4917975;29;20228;-77
2021/05/21 08:29:08;;;;;;;5.60;3.00;;;14.00;99.90;;;;;;4919506;29;20835;-78
2021/05/21 08:31:37;;;;;;;6.93;2.67;;;14.30;99.90;;;;;;4918132;29;20460;-77
2021/05/21 08:34:04;;;;;;;9.35;3.40;;;14.60;99.90;;;;;;4917310;29;20461;-79
2021/05/21 08:36:32;;;;;;;10.23;3.23;;;14.90;99.90;;;;;;4923540;29;20221;-80
2021/05/21 08:39:08;;;;;;;6.23;2.77;;;15.20;99.90;;;;;;4924684;29;20485;-79
2021/05/21 08:41:55;;;;;;;6.57;2.40;;;15.50;99.90;;;;;;4922748;29;20452;-79
2021/05/21 08:44:24;;;;;;;6.03;2.80;;;15.50;99.90;;;;;;4920754;29;20481;-79
2021/05/21 08:46:52;;;;;;;8.37;2.47;;;15.60;99.90;;;;;;4921956;29;20527;-80
2021/05/21 08:49:23;;;;;;;7.17;2.53;;;15.60;99.90;;;;;;4922627;29;20884;-80
2021/05/21 08:51:51;;;;;;;8.80;2.30;;;15.60;99.90;;;;;;4921759;29;20496;-80
2021/05/21 08:54:33;;;;;;;5.90;2.50;;;15.50;99.90;;;;;;4920927;29;20423;-80
2021/05/21 08:57:09;;;;;;;5.30;2.70;;;15.50;99.90;;;;;;4922550;29;20456;-80
2021/05/21 08:59:38;;;;;;;8.67;2.40;;;15.50;99.90;;;;;;4919780;29;20483;-80
2021/05/21 09:02:06;;;;;;;8.00;3.50;;;15.50;99.80;;;;;;4919336;29;20431;-80
2021/05/21 09:04:48;;;;;;;6.27;1.90;;;15.50;99.60;;;;;;4920823;29;20524;-80
2021/05/21 09:07:21;;;;;;;9.73;2.77;;;15.50;99.40;;;;;;4924935;29;20437;-80
2021/05/21 09:09:49;;;;;;;4.87;2.43;;;15.50;99.40;;;;;;4923185;29;20467;-80
2021/05/21 09:12:19;;;;;;;4.70;2.30;;;15.50;99.30;;;;;;4925993;29;20478;-80
2021/05/21 09:15:05;;;;;;;7.33;2.60;;;15.60;99.10;;;;;;4923548;29;20456;-80
2021/05/21 09:17:33;;;;;;;4.47;2.67;;;15.60;98.90;;;;;;4923504;29;20468;-80
2021/05/21 09:20:01;;;;;;;7.80;2.70;;;15.70;98.80;;;;;;4923044;29;20528;-80
2021/05/21 09:22:59;;;;;;;8.23;2.47;;;15.80;98.70;;;;;;4923173;29;20428;-80
2021/05/21 09:25:41;;;;;;;7.83;2.30;;;15.90;98.60;;;;;;4924074;29;20469;-80
2021/05/21 09:28:32;;;;;;;7.13;2.80;;;16.10;98.60;;;;;;4923164;29;20463;-80
2021/05/21 09:31:11;;;;;;;5.47;2.67;;;16.20;98.30;;;;;;4924310;29;20485;-80
2021/05/21 09:33:41;;;;;;;7.17;3.03;;;16.40;98.30;;;;;;4923961;29;20508;-81
2021/05/21 09:36:09;;;;;;;5.93;2.30;;;16.60;98.30;;;;;;4925503;29;20464;-80
2021/05/21 09:38:48;;;;;;;6.57;2.60;;;16.70;98.10;;;;;;4926974;29;21920;-81
2021/05/21 09:41:16;;;;;;;7.40;2.77;;;16.90;97.80;;;;;;4927933;29;20451;-80
2021/05/21 09:43:50;;;;;;;5.80;2.50;;;17.00;97.60;;;;;;4928578;29;20460;-80
2021/05/21 09:46:18;;;;;;;7.20;2.60;;;17.20;97.50;;;;;;4926327;29;20448;-80
2021/05/21 09:48:47;;;;;;;7.38;3.22;;;17.30;97.40;;;;;;4925964;29;20510;-80
2021/05/21 09:51:16;;;;;;;5.90;2.80;;;17.50;97.00;;;;;;4927237;29;20197;-80
2021/05/21 09:53:46;;;;;;;8.13;2.87;;;17.60;96.90;;;;;;4927216;29;20449;-80
2021/05/21 09:56:20;;;;;;;7.70;2.70;;;17.70;96.90;;;;;;4926438;29;20449;-80
2021/05/21 09:58:52;;;;;;;6.90;2.53;;;17.70;96.80;;;;;;4925932;29;20488;-80
2021/05/21 10:01:21;;;;;;;4.63;2.40;;;17.80;96.70;;;;;;4927254;29;20492;-80
2021/05/21 10:03:50;;;;;;;5.90;2.97;;;17.70;96.50;;;;;;4930288;29;20433;-80
2021/05/21 10:06:18;;;;;;;6.73;2.87;;;17.70;96.40;;;;;;4928126;29;20452;-81
2021/05/21 10:08:48;;;;;;;5.87;2.53;;;17.60;96.30;;;;;;4926685;29;20528;-80
2021/05/21 10:11:17;;;;;;;8.63;3.03;;;17.50;96.20;;;;;;4925365;29;20429;-80
2021/05/21 10:13:46;;;;;;;5.50;3.10;;;17.50;96.20;;;;;;4925592;29;20530;-80
2021/05/21 10:16:16;;;;;;;5.10;2.67;;;17.40;96.00;;;;;;4925329;29;20432;-80
2021/05/21 10:18:46;;;;;;;5.43;2.87;;;17.30;96.20;;;;;;4926266;29;20524;-80
2021/05/21 10:21:14;;;;;;;8.53;2.93;;;17.20;96.00;;;;;;4925406;29;20453;-80
2021/05/21 10:23:46;;;;;;;5.73;2.70;;;17.10;96.10;;;;;;4926070;29;20453;-81
2021/05/21 10:26:16;;;;;;;4.03;3.43;;;17.00;96.20;;;;;;4925986;29;20509;-79
2021/05/21 10:28:49;;;;;;;7.50;2.43;;;16.90;96.50;;;;;;4925654;29;20496;-80
2021/05/21 10:31:19;;;;;;;6.93;2.60;;;16.90;96.30;;;;;;4925423;29;20489;-80
2021/05/21 10:33:49;;;;;;;6.73;2.83;;;16.90;96.30;;;;;;4924880;29;20428;-80
2021/05/21 10:36:35;;;;;;;7.53;2.90;;;16.90;96.30;;;;;;4925280;29;20425;-80
2021/05/21 10:39:22;;;;;;;7.60;2.60;;;16.90;96.30;;;;;;4924722;29;20503;-80
2021/05/21 10:42:20;;;;;;;5.50;2.70;;;17.00;96.30;;;;;;4925650;29;20436;-80
2021/05/21 10:45:13;;;;;;;4.33;2.60;;;17.00;96.20;;;;;;4923006;29;20553;-79
2021/05/21 10:47:45;;;;;;;6.77;2.50;;;17.00;96.00;;;;;;4922563;29;20473;-80
2021/05/21 10:50:19;;;;;;;7.17;2.60;;;17.00;95.70;;;;;;4923470;29;20523;-80
2021/05/21 10:52:59;;;;;;;7.20;2.40;;;17.00;95.60;;;;;;4924831;29;20986;-80
2021/05/21 10:55:44;;;;;;;7.43;2.03;;;16.90;95.60;;;;;;4922875;29;20453;-80
2021/05/21 10:58:17;;;;;;;6.97;1.93;;;16.90;95.50;;;;;;4922161;29;20473;-79
2021/05/21 11:01:17;;;;;;;6.18;2.22;;;16.80;95.30;;;;;;4922471;29;20487;-80
2021/05/21 11:04:05;;;;;;;6.17;1.60;;;16.90;94.30;;;;;;4894036;29;20268;-80
2021/05/21 11:06:43;;;;;;;7.70;2.50;;;16.80;94.40;;;;;;4923156;29;20429;-80
2021/05/21 11:09:13;;;;;;;7.30;2.20;;;16.70;94.50;;;;;;4921412;29;20477;-79
2021/05/21 11:11:45;;;;;;;6.83;2.27;;;16.60;94.40;;;;;;4922437;29;20805;-81
2021/05/21 11:14:30;;;;;;;5.50;2.30;;;16.60;94.30;;;;;;4923936;29;20425;-79
2021/05/21 11:16:59;;;;;;;8.60;2.70;;;16.70;94.30;;;;;;4921941;29;20453;-80
2021/05/21 11:19:31;;;;;;;7.17;2.33;;;16.70;94.30;;;;;;4923500;29;20549;-79
2021/05/21 11:22:07;;;;;;;6.70;2.73;;;16.80;94.20;;;;;;4922590;29;20453;-79
2021/05/21 11:24:40;;;;;;;5.93;2.10;;;16.90;94.10;;;;;;4922137;29;20448;-79
2021/05/21 11:27:11;;;;;;;6.77;2.40;;;17.10;94.40;;;;;;4921364;29;20452;-80
2021/05/21 11:29:47;;;;;;;8.37;2.47;;;17.20;94.10;;;;;;4920810;29;20476;-80
2021/05/21 11:32:15;;;;;;;7.63;3.00;;;17.30;93.90;;;;;;4923141;29;20467;-79
2021/05/21 11:34:45;;;;;;;5.77;2.30;;;17.40;93.80;;;;;;4921160;29;20481;-80
2021/05/21 11:37:19;;;;;;;8.10;3.47;;;17.40;93.60;;;;;;4922678;29;20489;-79
2021/05/21 11:39:47;;;;;;;6.60;2.10;;;17.50;93.50;;;;;;4922130;29;20873;-80
2021/05/21 11:42:15;;;;;;;5.33;1.70;;;17.60;93.50;;;;;;4922390;29;20806;-80
2021/05/21 11:44:46;;;;;;;4.53;2.20;;;17.70;93.40;;;;;;4920703;29;20515;-80
2021/05/21 11:47:23;;;;;;;4.07;1.40;;;17.80;93.20;;;;;;4921360;29;20465;-81
2021/05/21 11:49:53;;;;;;;8.17;1.90;;;17.90;92.90;;;;;;4921062;29;20576;-80
2021/05/21 11:52:21;;;;;;;3.67;1.80;;;17.90;92.40;;;;;;4921271;29;20460;-80
2021/05/21 11:54:50;;;;;;;2.70;1.40;;;17.80;92.20;;;;;;4921413;29;20448;-80
2021/05/21 11:57:20;;;;;;;4.10;2.17;;;17.90;91.80;;;;;;4921735;29;20530;-79
2021/05/21 11:59:48;;;;;;;5.67;1.60;;;17.90;90.60;;;;;;4921569;29;20208;-79
2021/05/21 12:02:20;;;;;;;3.83;1.90;;;17.90;90.60;;;;;;4921605;29;20457;-79
2021/05/21 12:04:49;;;;;;;5.63;2.00;;;17.90;90.70;;;;;;4920434;29;20485;-79
2021/05/21 12:07:20;;;;;;;5.17;1.80;;;18.00;90.70;;;;;;4921621;29;20457;-80
2021/05/21 12:10:00;;;;;;;5.20;1.63;;;17.90;90.40;;;;;;4920590;29;21028;-80
2021/05/21 12:12:28;;;;;;;8.40;2.30;;;17.90;90.30;;;;;;4921344;29;20456;-79
2021/05/21 12:15:09;;;;;;;3.13;1.33;;;17.90;90.60;;;;;;4921736;29;21038;-80
2021/05/21 12:17:38;;;;;;;3.77;1.63;;;18.00;90.50;;;;;;4920198;29;20524;-80
2021/05/21 12:20:07;;;;;;;8.83;1.57;;;18.00;90.10;;;;;;4921592;29;20527;-80
2021/05/21 12:22:35;;;;;;;1.30;0.80;;;18.00;89.80;;;;;;4920872;29;20453;-79
2021/05/21 12:25:16;;;;;;;3.10;1.30;;;17.90;88.90;;;;;;4920452;29;20461;-80
2021/05/21 12:27:44;;;;;;;2.70;1.03;;;17.90;88.30;;;;;;4919975;29;20449;-79
2021/05/21 12:30:15;;;;;;;2.10;1.07;;;17.80;88.00;;;;;;4922107;29;20477;-81
2021/05/21 12:32:45;;;;;;;2.07;0.73;;;17.60;87.60;;;;;;4920324;29;20468;-80
2021/05/21 12:35:16;;;;;;;2.30;0.90;;;17.40;87.90;;;;;;4921063;29;20456;-80
2021/05/21 12:37:46;;;;;;;4.40;1.10;;;17.20;87.50;;;;;;4921264;29;20515;-80
2021/05/21 12:40:16;;;;;;;2.60;0.80;;;16.90;88.40;;;;;;4927398;29;20492;-80
2021/05/21 12:42:49;;;;;;;4.20;1.80;;;16.70;89.50;;;;;;4929126;29;20463;-80
2021/05/21 12:45:17;;;;;;;1.20;0.87;;;16.40;90.30;;;;;;4929194;29;20460;-80
2021/05/21 12:47:46;;;;;;;2.07;0.80;;;16.30;90.70;;;;;;4927982;29;20475;-79
2021/05/21 12:50:14;;;;;;;4.77;1.03;;;16.10;91.10;;;;;;4924294;29;20500;-79
2021/05/21 12:53:00;;;;;;;1.40;1.00;;;16.00;91.50;;;;;;4924593;29;20469;-79
2021/05/21 12:55:29;;;;;;;3.23;1.30;;;16.00;92.00;;;;;;4925988;29;20847;-79
2021/05/21 12:57:57;;;;;;;3.80;1.40;;;16.00;92.30;;;;;;4923159;29;20472;-79
2021/05/21 13:00:26;;;;;;;2.17;1.20;;;16.10;92.70;;;;;;4923355;29;20448;-80